M I D A S
Marine Information and Data Acquisition System
Tripno 877 of the Zeeleeuw from 2005-04-05 07:01:00 to 2005-04-05 10:52:00
Back to CruiseResearch ActivitiesStationsMapUnderway DataData graphs

EquipmentUnitsComment
TimeDGPSUTC
LatitudeDGPSDM.mWGS84
LongitudeDGPSDM.mWGS84
HeadingGyrodeg 
SOGDGPSknotsSpeed over ground
COGDGPSdegCourse over ground
DepthEcho soundermeters200 kHz
Missing or incorrect values are displayed as -999
Navigation data collected by the RV Zeeleeuw from 2005-04-05 07:01:10 to 2005-04-05 10:52:35
                                                                                    Next 1000 lines
Time Latitude Longitude Heading SOG COG Depth
2005-04-05 07:01:21 51°13.597 2°56.09 115.9 1.6 294 7.8
2005-04-05 07:01:25 51°13.598 2°56.085 116.6 2.2 293 -999
2005-04-05 07:01:31 51°13.6 2°56.079 117.1 2.4 296 -999
2005-04-05 07:01:36 51°13.602 2°56.073 117.4 3 296 -999
2005-04-05 07:01:41 51°13.604 2°56.067 117.5 3.1 297 -999
2005-04-05 07:01:45 51°13.606 2°56.061 117.8 3.4 296 -999
2005-04-05 07:01:51 51°13.608 2°56.052 118.2 3.5 297 -999
2005-04-05 07:01:55 51°13.61 2°56.046 118.7 3.7 296 -999
2005-04-05 07:02:01 51°13.613 2°56.038 119.2 3.8 297 -999
2005-04-05 07:02:06 51°13.616 2°56.03 119.7 3.8 297 -999
2005-04-05 07:02:11 51°13.618 2°56.022 120 3.9 297 -999
2005-04-05 07:02:16 51°13.621 2°56.013 120.4 4 297 -999
2005-04-05 07:02:21 51°13.623 2°56.006 120.8 4.2 297 -999
2005-04-05 07:02:26 51°13.626 2°55.997 121.2 4.2 297 -999
2005-04-05 07:02:31 51°13.63 2°55.987 121.6 4.5 298 -999
2005-04-05 07:02:36 51°13.632 2°55.979 122 4.6 298 -999
2005-04-05 07:02:41 51°13.636 2°55.969 122.5 4.7 299 -999
2005-04-05 07:02:45 51°13.639 2°55.961 122.6 4.8 299 -999
2005-04-05 07:02:51 51°13.643 2°55.95 122.5 4.8 299 -999
2005-04-05 07:02:55 51°13.645 2°55.943 121.9 4.9 299 -999
2005-04-05 07:03:01 51°13.649 2°55.932 120.8 4.9 299 -999
2005-04-05 07:03:05 51°13.652 2°55.923 119.9 4.9 297 -999
2005-04-05 07:03:11 51°13.655 2°55.912 118.6 4.9 297 -999
2005-04-05 07:03:15 51°13.658 2°55.904 117.3 4.9 297 -999
2005-04-05 07:03:21 51°13.661 2°55.892 115.9 4.9 297 -999
2005-04-05 07:03:26 51°13.664 2°55.882 114.7 4.9 294 -999
2005-04-05 07:03:31 51°13.666 2°55.872 113.2 4.9 294 -999
2005-04-05 07:03:35 51°13.667 2°55.869 111.2 2.8 291 -999
2005-04-05 07:03:41 51°13.67 2°55.853 109.5 2.9 290 -999
2005-04-05 07:03:45 51°13.672 2°55.844 107.9 4.7 288 -999
2005-04-05 07:03:51 51°13.674 2°55.832 106.4 4.7 287 -999
2005-04-05 07:03:55 51°13.675 2°55.824 104.8 4.6 285 -999
2005-04-05 07:04:01 51°13.677 2°55.814 102.8 4.6 284 -999
2005-04-05 07:04:06 51°13.678 2°55.804 101.3 4.6 282 -999
2005-04-05 07:04:11 51°13.679 2°55.794 99.2 4.4 280 -999
2005-04-05 07:04:16 51°13.68 2°55.785 97.9 4.3 280 -999
2005-04-05 07:04:21 51°13.681 2°55.777 96.6 4 279 -999
2005-04-05 07:04:25 51°13.681 2°55.77 95.3 3.7 277 -999
2005-04-05 07:04:31 51°13.682 2°55.762 93.9 3.3 276 -999
2005-04-05 07:04:35 51°13.682 2°55.758 91.6 2.7 274 12.2
2005-04-05 07:04:40 51°13.682 2°55.754 89.2 2.7 274 12.4
2005-04-05 07:04:45 51°13.683 2°55.752 86.1 1.3 279 12.4
2005-04-05 07:04:51 51°13.683 2°55.751 81.7 0.8 291 -999
2005-04-05 07:04:55 51°13.684 2°55.752 75.3 0.8 291 12.6
2005-04-05 07:05:01 51°13.685 2°55.753 70.2 0.8 291 12.6
2005-04-05 07:05:05 51°13.686 2°55.755 63.1 1.3 37 -999
2005-04-05 07:05:11 51°13.689 2°55.758 55.4 1.5 36 -999
2005-04-05 07:05:15 51°13.692 2°55.76 45.9 2.1 31 12.8
2005-04-05 07:05:21 51°13.695 2°55.762 39.5 2.1 31 12.7
2005-04-05 07:05:25 51°13.698 2°55.763 31.5 2.8 18 12.9
2005-04-05 07:05:31 51°13.704 2°55.765 23.3 2.9 15 12.8
2005-04-05 07:05:35 51°13.707 2°55.764 15.2 3.1 8 12.8
2005-04-05 07:05:39 51°13.712 2°55.764 5.8 3.5 355 13
2005-04-05 07:05:45 51°13.717 2°55.762 359.5 3.5 355 13
2005-04-05 07:05:50 51°13.723 2°55.758 351.2 3.8 346 12.8
2005-04-05 07:05:55 51°13.728 2°55.754 342.8 4 334 12
2005-04-05 07:06:00 51°13.732 2°55.749 334.6 3.9 329 11.5
2005-04-05 07:06:05 51°13.736 2°55.744 328.6 3.9 324 11.1
2005-04-05 07:06:11 51°13.741 2°55.737 325 3.9 323 10.8
2005-04-05 07:06:15 51°13.745 2°55.732 323.1 4.2 321 10.5
2005-04-05 07:06:20 51°13.749 2°55.727 322.8 4.3 320 10.4
2005-04-05 07:06:25 51°13.755 2°55.72 322.9 4.2 320 10.4
2005-04-05 07:06:30 51°13.759 2°55.714 323.3 4.2 320 10.4
2005-04-05 07:06:36 51°13.764 2°55.708 323.5 4.2 321 10.4
2005-04-05 07:06:40 51°13.768 2°55.703 324 4.1 320 10.4
2005-04-05 07:06:45 51°13.772 2°55.697 324.5 4.1 321 10.5
2005-04-05 07:06:50 51°13.776 2°55.691 325.2 4.1 322 10.6
2005-04-05 07:06:55 51°13.781 2°55.686 326.1 4.1 323 10.6
2005-04-05 07:07:01 51°13.786 2°55.68 327.2 4.1 323 10.6
2005-04-05 07:07:05 51°13.79 2°55.675 328 4.1 326 10.5
2005-04-05 07:07:10 51°13.795 2°55.67 329.5 4.1 326 10.5
2005-04-05 07:07:15 51°13.8 2°55.665 330.2 4.3 328 10.7
2005-04-05 07:07:20 51°13.805 2°55.66 330.8 4.2 328 10.6
2005-04-05 07:07:25 51°13.809 2°55.656 331 4.2 328 10.6
2005-04-05 07:07:30 51°13.815 2°55.651 331.1 4.2 328 10.7
2005-04-05 07:07:35 51°13.819 2°55.646 331.1 4.1 328 10.8
2005-04-05 07:07:40 51°13.824 2°55.641 331.1 4.1 328 10.8
2005-04-05 07:07:45 51°13.828 2°55.637 331.1 4.1 328 10.9
2005-04-05 07:07:51 51°13.833 2°55.631 330.9 4 330 11
2005-04-05 07:07:55 51°13.838 2°55.626 330.9 4 329 11
2005-04-05 07:08:01 51°13.843 2°55.621 330.9 4 330 11
2005-04-05 07:08:05 51°13.848 2°55.616 330.9 4.1 329 10.9
2005-04-05 07:08:11 51°13.853 2°55.611 330.9 4.2 329 10.9
2005-04-05 07:08:15 51°13.858 2°55.607 330.7 4.5 335 10.9
2005-04-05 07:08:21 51°13.864 2°55.601 330.4 4.5 331 10.8
2005-04-05 07:08:26 51°13.87 2°55.595 330.4 4.6 328 10.8
2005-04-05 07:08:31 51°13.875 2°55.589 330.4 4.7 327 10.8
2005-04-05 07:08:35 51°13.881 2°55.584 330.6 4.9 328 10.8
2005-04-05 07:08:40 51°13.886 2°55.579 330.6 5 327 10.8
2005-04-05 07:08:45 51°13.893 2°55.572 330.6 5 327 10.6
2005-04-05 07:08:51 51°13.899 2°55.565 330.5 5 327 10.6
2005-04-05 07:08:55 51°13.904 2°55.56 330.2 4.8 327 10.7
2005-04-05 07:09:01 51°13.91 2°55.554 330 4.7 327 10.6
2005-04-05 07:09:05 51°13.914 2°55.549 329.6 4.7 326 11
2005-04-05 07:09:11 51°13.92 2°55.543 329.5 4.7 326 10.7
2005-04-05 07:09:15 51°13.925 2°55.538 329.7 4.5 327 10.8
2005-04-05 07:09:19 51°13.929 2°55.533 329.9 4.3 328 10.9
2005-04-05 07:09:25 51°13.935 2°55.527 330 4.2 327 10.9
2005-04-05 07:09:30 51°13.94 2°55.523 329.7 4.2 327 10.9
2005-04-05 07:09:35 51°13.944 2°55.518 328.8 4.1 327 10.8
2005-04-05 07:09:41 51°13.949 2°55.512 327.7 4.1 327 10.5
2005-04-05 07:09:45 51°13.953 2°55.508 326.4 3.7 326 10
2005-04-05 07:09:51 51°13.957 2°55.503 325.5 3.5 324 10
2005-04-05 07:09:55 51°13.96 2°55.499 325.2 3.3 324 10
2005-04-05 07:10:01 51°13.964 2°55.495 324.7 3.3 324 10.1
2005-04-05 07:10:05 51°13.966 2°55.491 324.1 3.3 324 9.9
2005-04-05 07:10:10 51°13.97 2°55.487 323 3.1 322 9.7
2005-04-05 07:10:15 51°13.972 2°55.483 321.9 2.7 322 9.6
2005-04-05 07:10:20 51°13.974 2°55.481 321.2 2.2 321 9.4
2005-04-05 07:10:25 51°13.976 2°55.478 321.5 2.1 322 9.2
2005-04-05 07:10:31 51°13.979 2°55.475 322 2 322 -999
2005-04-05 07:10:35 51°13.981 2°55.473 322.5 1.9 322 -999
2005-04-05 07:10:41 51°13.983 2°55.47 322.9 1.9 321 8.7
2005-04-05 07:10:45 51°13.985 2°55.468 323.2 1.6 324 8.6
2005-04-05 07:10:51 51°13.986 2°55.467 323.2 1.2 322 8.5
2005-04-05 07:10:55 51°13.988 2°55.464 323 1.6 329 8.6
2005-04-05 07:11:01 51°13.991 2°55.461 322.9 1.6 329 8.4
2005-04-05 07:11:05 51°13.993 2°55.459 326.1 2.1 326 8.4
2005-04-05 07:11:11 51°13.995 2°55.457 329.1 2 326 8.3
2005-04-05 07:11:15 51°13.996 2°55.456 330.9 1.4 339 8.1
2005-04-05 07:11:21 51°13.997 2°55.455 333.4 1 320 8.3
2005-04-05 07:11:25 51°13.998 2°55.455 336.3 0.9 349 8.2
2005-04-05 07:11:30 51°14 2°55.454 338.6 0.9 349 8.2
2005-04-05 07:11:35 51°14.001 2°55.453 340.9 0.8 342 8.2
2005-04-05 07:11:40 51°14.002 2°55.452 342.5 0.9 342 8.8
2005-04-05 07:11:45 51°14.003 2°55.452 344 0.9 354 8.6
2005-04-05 07:11:51 51°14.004 2°55.452 345.2 0.9 354 -999
2005-04-05 07:11:55 51°14.005 2°55.451 346.5 0.8 354 8.8
2005-04-05 07:12:01 51°14.006 2°55.451 347.6 0.8 354 9
2005-04-05 07:12:05 51°14.007 2°55.451 348.3 0.8 357 -999
2005-04-05 07:12:11 51°14.009 2°55.45 348.7 0.8 346 -999
2005-04-05 07:12:15 51°14.009 2°55.45 349.1 0.7 -999 8.7
2005-04-05 07:12:21 51°14.01 2°55.45 349.1 0.6 357 8.7
2005-04-05 07:12:25 51°14.011 2°55.45 349 0.6 3 8.6
2005-04-05 07:12:31 51°14.011 2°55.45 348.6 0.6 3 8.7
2005-04-05 07:12:35 51°14.012 2°55.45 348.1 0.6 3 8.7
2005-04-05 07:12:40 51°14.012 2°55.45 347.6 0.3 357 8.7
2005-04-05 07:12:44 51°14.012 2°55.45 346.7 0.1 346 8.7
2005-04-05 07:12:51 51°14.012 2°55.449 345.2 0.1 346 8.6
2005-04-05 07:12:55 51°14.011 2°55.449 344.4 0.1 333 8.7
2005-04-05 07:13:01 51°14.011 2°55.448 343.9 0.2 269 8.6
2005-04-05 07:13:05 51°14.011 2°55.447 343.2 0.2 269 8.5
2005-04-05 07:13:11 51°14.011 2°55.448 342.8 0.1 273 8.6
2005-04-05 07:13:15 51°14.011 2°55.448 342.6 0.1 237 8.6
2005-04-05 07:13:21 51°14.011 2°55.447 342.5 0.1 300 8.6
2005-04-05 07:13:25 51°14.011 2°55.448 342.5 0.1 300 8.9
2005-04-05 07:13:30 51°14.011 2°55.448 343 -999 192 8.7
2005-04-05 07:13:35 51°14.011 2°55.448 343.9 -999 192 8.7
2005-04-05 07:13:41 51°14.011 2°55.447 345.1 -999 119 8.5
2005-04-05 07:13:45 51°14.01 2°55.447 346 -999 90 8.5
2005-04-05 07:13:51 51°14.01 2°55.447 347.2 -999 89 8.5
2005-04-05 07:13:56 51°14.01 2°55.447 348.4 0.1 94 8.6
2005-04-05 07:14:01 51°14.011 2°55.448 349.7 0.1 94 8.5
2005-04-05 07:14:05 51°14.011 2°55.448 350.7 0.1 69 8.6
2005-04-05 07:14:10 51°14.011 2°55.448 351.1 0.1 69 8.6
2005-04-05 07:14:15 51°14.011 2°55.448 351.4 0.1 69 8.6
2005-04-05 07:14:21 51°14.011 2°55.448 351.6 0.1 83 9.1
2005-04-05 07:14:25 51°14.01 2°55.448 351.9 -999 165 8.9
2005-04-05 07:14:30 51°14.01 2°55.447 352 -999 165 8.6
2005-04-05 07:14:35 51°14.01 2°55.447 352 -999 165 8.6
2005-04-05 07:14:40 51°14.01 2°55.447 351.8 0.1 320 8.6
2005-04-05 07:14:45 51°14.01 2°55.447 351.4 0.1 281 8.5
2005-04-05 07:14:51 51°14.011 2°55.448 351 0.1 281 8.6
2005-04-05 07:14:55 51°14.011 2°55.448 350.2 0.1 59 8.5
2005-04-05 07:15:01 51°14.011 2°55.448 349.7 -999 14 8.7
2005-04-05 07:15:05 51°14.011 2°55.448 349.8 -999 14 8.5
2005-04-05 07:15:11 51°14.011 2°55.447 349.8 -999 264 8.6
2005-04-05 07:15:16 51°14.011 2°55.447 349.8 -999 173 8.5
2005-04-05 07:15:20 51°14.011 2°55.448 349.8 -999 173 8.6
2005-04-05 07:15:25 51°14.011 2°55.448 349.8 -999 173 8.5
2005-04-05 07:15:31 51°14.011 2°55.448 349.8 -999 173 -999
2005-04-05 07:15:35 51°14.011 2°55.447 349.8 -999 201 8.7
2005-04-05 07:15:39 51°14.011 2°55.447 349.8 -999 28 8.6
2005-04-05 07:15:46 51°14.011 2°55.448 349.8 -999 28 8.6
2005-04-05 07:15:51 51°14.011 2°55.448 349.8 -999 315 8.6
2005-04-05 07:15:55 51°14.011 2°55.448 349.8 -999 315 8.5
2005-04-05 07:16:01 51°14.012 2°55.448 349.8 -999 184 8.5
2005-04-05 07:16:05 51°14.012 2°55.448 349.8 -999 25 8.6
2005-04-05 07:16:11 51°14.012 2°55.448 349.8 -999 25 8.6
2005-04-05 07:16:15 51°14.012 2°55.448 349.8 0.1 359 8.7
2005-04-05 07:16:21 51°14.012 2°55.448 349.8 -999 28 -999
2005-04-05 07:16:25 51°14.012 2°55.448 349.8 -999 88 8.6
2005-04-05 07:16:30 51°14.012 2°55.448 349.7 -999 10 8.6
2005-04-05 07:16:35 51°14.012 2°55.448 349.7 -999 299 8.7
2005-04-05 07:16:41 51°14.012 2°55.448 349.7 -999 222 8.6
2005-04-05 07:16:46 51°14.011 2°55.448 349.7 -999 4 8.6
2005-04-05 07:16:51 51°14.011 2°55.448 349.7 0.1 19 8.5
2005-04-05 07:16:55 51°14.011 2°55.448 349.7 -999 21 8.6
2005-04-05 07:16:59 51°14.011 2°55.448 349.7 -999 23 8.6
2005-04-05 07:17:05 51°14.01 2°55.447 349.7 -999 51 8.7
2005-04-05 07:17:11 51°14.01 2°55.447 349.7 -999 51 8.6
2005-04-05 07:17:16 51°14.01 2°55.447 349.7 -999 19 8.7
2005-04-05 07:17:20 51°14.01 2°55.447 349.7 0.1 30 8.7
2005-04-05 07:17:25 51°14.01 2°55.447 349.7 0.1 30 8.7
2005-04-05 07:17:31 51°14.01 2°55.447 349.6 -999 47 8.7
2005-04-05 07:17:35 51°14.01 2°55.447 349.6 -999 47 8.7
2005-04-05 07:17:40 51°14.01 2°55.447 349.6 -999 13 8.9
2005-04-05 07:17:45 51°14.009 2°55.446 349.6 -999 13 8.7
2005-04-05 07:17:51 51°14.009 2°55.446 349.6 -999 232 8.7
2005-04-05 07:17:55 51°14.009 2°55.446 349.6 -999 232 8.7
2005-04-05 07:18:01 51°14.009 2°55.446 349.6 -999 29 8.7
2005-04-05 07:18:05 51°14.009 2°55.446 349.6 -999 29 8.7
2005-04-05 07:18:11 51°14.009 2°55.446 349.6 -999 16 8.6
2005-04-05 07:18:16 51°14.008 2°55.446 349.6 -999 16 8.7
2005-04-05 07:18:21 51°14.009 2°55.446 349.6 -999 16 8.7
2005-04-05 07:18:25 51°14.009 2°55.446 349.6 -999 5 8.6
2005-04-05 07:18:31 51°14.009 2°55.446 349.6 -999 9 8.6
2005-04-05 07:18:35 51°14.009 2°55.446 349.6 -999 40 8.6
2005-04-05 07:18:39 51°14.009 2°55.446 349.6 -999 33 8.5
2005-04-05 07:18:44 51°14.009 2°55.446 349.6 -999 5 8.8
2005-04-05 07:18:51 51°14.009 2°55.446 349.6 -999 20 8.6
2005-04-05 07:18:55 51°14.009 2°55.446 349.6 -999 20 8.7
2005-04-05 07:19:01 51°14.009 2°55.446 349.6 -999 22 8.6
2005-04-05 07:19:05 51°14.009 2°55.446 349.6 -999 28 8.7
2005-04-05 07:19:11 51°14.009 2°55.447 349.6 -999 16 8.7
2005-04-05 07:19:15 51°14.01 2°55.448 349.6 -999 33 8.7
2005-04-05 07:19:20 51°14.01 2°55.448 349.6 -999 43 8.7
2005-04-05 07:19:25 51°14.01 2°55.448 349.6 -999 26 8.7
2005-04-05 07:19:30 51°14.01 2°55.448 349.6 -999 48 -999
2005-04-05 07:19:35 51°14.01 2°55.448 349.6 -999 344 8.7
2005-04-05 07:19:40 51°14.01 2°55.449 349.6 -999 287 8.7
2005-04-05 07:19:45 51°14.011 2°55.449 349.6 -999 287 8.7
2005-04-05 07:19:51 51°14.011 2°55.449 349.6 -999 82 8.7
2005-04-05 07:19:55 51°14.011 2°55.449 349.6 -999 20 8.9
2005-04-05 07:19:59 51°14.011 2°55.448 349.6 -999 31 8.7
2005-04-05 07:20:04 51°14.011 2°55.448 349.6 -999 27 8.7
2005-04-05 07:20:11 51°14.011 2°55.449 349.6 -999 17 8.7
2005-04-05 07:20:15 51°14.011 2°55.449 349.6 -999 8 8.7
2005-04-05 07:20:19 51°14.011 2°55.449 349.6 -999 28 8.7
2005-04-05 07:20:25 51°14.011 2°55.449 349.6 -999 16 8.7
2005-04-05 07:20:31 51°14.011 2°55.449 349.6 -999 17 8.7
2005-04-05 07:20:35 51°14.011 2°55.449 349.5 -999 93 8.7
2005-04-05 07:20:41 51°14.011 2°55.448 349.5 -999 93 8.7
2005-04-05 07:20:45 51°14.011 2°55.449 349.5 -999 93 8.7
2005-04-05 07:20:51 51°14.011 2°55.449 349.5 -999 305 8.7
2005-04-05 07:20:55 51°14.011 2°55.449 349.5 -999 17 8.8
2005-04-05 07:21:01 51°14.011 2°55.449 349.5 -999 21 8.7
2005-04-05 07:21:05 51°14.011 2°55.449 349.5 -999 9 8.7
2005-04-05 07:21:11 51°14.011 2°55.449 349.5 -999 28 8.8
2005-04-05 07:21:15 51°14.011 2°55.449 349.5 -999 36 8.7
2005-04-05 07:21:21 51°14.011 2°55.449 349.5 -999 162 8.8
2005-04-05 07:21:26 51°14.011 2°55.448 349.5 -999 162 8.8
2005-04-05 07:21:30 51°14.01 2°55.448 349.5 -999 38 8.8
2005-04-05 07:21:36 51°14.01 2°55.448 349.5 -999 38 8.8
2005-04-05 07:21:40 51°14.01 2°55.448 349.4 0.1 14 8.9
2005-04-05 07:21:45 51°14.01 2°55.448 349.4 0.1 14 8.7
2005-04-05 07:21:51 51°14.01 2°55.448 349.4 0.1 14 8.8
2005-04-05 07:21:55 51°14.01 2°55.448 349.4 -999 24 8.8
2005-04-05 07:22:01 51°14.01 2°55.448 349.4 -999 31 8.8
2005-04-05 07:22:05 51°14.01 2°55.448 349.4 -999 53 8.8
2005-04-05 07:22:10 51°14.01 2°55.448 349.4 -999 20 8.9
2005-04-05 07:22:15 51°14.01 2°55.448 349.4 -999 22 8.7
2005-04-05 07:22:21 51°14.01 2°55.448 349.4 -999 19 8.9
2005-04-05 07:22:26 51°14.01 2°55.448 349.4 -999 24 -999
2005-04-05 07:22:30 51°14.01 2°55.448 349.4 -999 49 8.9
2005-04-05 07:22:36 51°14.01 2°55.448 349.4 -999 57 -999
2005-04-05 07:22:41 51°14.01 2°55.448 349.4 -999 44 8.8
2005-04-05 07:22:46 51°14.01 2°55.448 349.4 -999 44 8.8
2005-04-05 07:22:51 51°14.01 2°55.448 349.4 -999 44 8.7
2005-04-05 07:22:55 51°14.01 2°55.448 349.4 -999 44 8.7
2005-04-05 07:23:00 51°14.01 2°55.448 349.4 -999 37 8.8
2005-04-05 07:23:05 51°14.01 2°55.448 349.4 -999 37 8.8
2005-04-05 07:23:10 51°14.01 2°55.448 349.4 -999 22 8.9
2005-04-05 07:23:15 51°14.01 2°55.448 349.4 -999 23 8.7
2005-04-05 07:23:21 51°14.01 2°55.448 349.4 -999 23 8.7
2005-04-05 07:23:25 51°14.01 2°55.448 349.4 -999 23 8.7
2005-04-05 07:23:30 51°14.01 2°55.448 349.4 -999 34 8.8
2005-04-05 07:23:35 51°14.01 2°55.448 349.4 -999 30 8.7
2005-04-05 07:23:39 51°14.01 2°55.448 349.4 -999 36 8.7
2005-04-05 07:23:45 51°14.01 2°55.448 349.4 -999 27 8.8
2005-04-05 07:23:51 51°14.01 2°55.448 349.4 -999 27 8.7
2005-04-05 07:23:55 51°14.01 2°55.448 349.4 -999 8 8.7
2005-04-05 07:24:01 51°14.009 2°55.447 349.4 -999 45 8.8
2005-04-05 07:24:05 51°14.009 2°55.447 349.4 -999 45 8.8
2005-04-05 07:24:11 51°14.009 2°55.447 349.4 -999 6 9.2
2005-04-05 07:24:15 51°14.009 2°55.447 349.4 -999 39 8.7
2005-04-05 07:24:21 51°14.01 2°55.447 349.4 -999 39 8.9
2005-04-05 07:24:25 51°14.01 2°55.447 349.4 -999 29 8.7
2005-04-05 07:24:30 51°14.01 2°55.448 349.4 -999 50 8.8
2005-04-05 07:24:35 51°14.01 2°55.448 349.4 -999 50 8.7
2005-04-05 07:24:39 51°14.01 2°55.448 349.4 -999 23 9.3
2005-04-05 07:24:45 51°14.01 2°55.448 349.4 -999 43 8.7
2005-04-05 07:24:51 51°14.01 2°55.448 349.4 -999 43 8.8
2005-04-05 07:24:55 51°14.01 2°55.448 349.4 -999 43 8.8
2005-04-05 07:25:00 51°14.01 2°55.448 349.4 -999 66 8.7
2005-04-05 07:25:05 51°14.01 2°55.447 349.4 -999 71 8.8
2005-04-05 07:25:11 51°14.01 2°55.447 349.3 -999 71 8.7
2005-04-05 07:25:16 51°14.01 2°55.447 349.3 -999 8 8.9
2005-04-05 07:25:21 51°14.01 2°55.448 349.3 -999 30 8.8
2005-04-05 07:25:25 51°14.01 2°55.447 349.3 -999 30 8.8
2005-04-05 07:25:31 51°14.01 2°55.447 349.3 -999 43 8.8
2005-04-05 07:25:36 51°14.01 2°55.447 349.3 -999 48 8.7
2005-04-05 07:25:41 51°14.01 2°55.447 349.3 -999 26 8.7
2005-04-05 07:25:45 51°14.01 2°55.447 349.3 -999 19 8.8
2005-04-05 07:25:51 51°14.01 2°55.447 349.3 -999 19 8.7
2005-04-05 07:25:55 51°14.01 2°55.447 349.3 -999 19 8.7
2005-04-05 07:26:01 51°14.01 2°55.447 349.3 -999 11 8.8
2005-04-05 07:26:05 51°14.01 2°55.447 349.3 -999 40 8.9
2005-04-05 07:26:10 51°14.01 2°55.447 349.3 -999 40 8.7
2005-04-05 07:26:15 51°14.01 2°55.447 349.3 -999 40 8.8
2005-04-05 07:26:21 51°14.01 2°55.447 349.3 -999 15 8.7
2005-04-05 07:26:25 51°14.01 2°55.447 349.3 -999 45 8.8
2005-04-05 07:26:31 51°14.01 2°55.447 349.2 -999 45 8.9
2005-04-05 07:26:35 51°14.01 2°55.447 349.2 -999 359 8.7
2005-04-05 07:26:40 51°14.01 2°55.447 349.2 -999 359 8.9
2005-04-05 07:26:45 51°14.01 2°55.447 349.2 -999 19 8.7
2005-04-05 07:26:51 51°14.01 2°55.447 349.2 -999 58 8.9
2005-04-05 07:26:55 51°14.01 2°55.447 349.2 -999 58 8.7
2005-04-05 07:27:01 51°14.011 2°55.448 349.2 -999 18 8.9
2005-04-05 07:27:05 51°14.012 2°55.448 349.2 -999 18 8.9
2005-04-05 07:27:11 51°14.012 2°55.449 349.2 -999 41 9.3
2005-04-05 07:27:15 51°14.012 2°55.449 349.2 -999 41 8.9
2005-04-05 07:27:21 51°14.012 2°55.449 349.2 -999 54 8.9
2005-04-05 07:27:26 51°14.012 2°55.449 349.2 -999 103 8.8
2005-04-05 07:27:31 51°14.012 2°55.449 349.2 -999 189 8.9
2005-04-05 07:27:35 51°14.012 2°55.449 349.2 -999 28 8.7
2005-04-05 07:27:41 51°14.012 2°55.449 349.2 -999 33 8.8
2005-04-05 07:27:45 51°14.012 2°55.449 349.2 -999 11 8.9
2005-04-05 07:27:51 51°14.012 2°55.449 349.2 -999 356 8.9
2005-04-05 07:27:56 51°14.012 2°55.449 349.2 -999 357 9.1
2005-04-05 07:28:00 51°14.012 2°55.449 349.2 -999 15 8.8
2005-04-05 07:28:05 51°14.012 2°55.449 349.2 -999 15 8.9
2005-04-05 07:28:11 51°14.012 2°55.448 349.2 -999 29 8.8
2005-04-05 07:28:15 51°14.012 2°55.448 349.2 -999 266 8.8
2005-04-05 07:28:21 51°14.012 2°55.448 349.2 -999 30 8.8
2005-04-05 07:28:25 51°14.012 2°55.448 349.2 -999 30 8.7
2005-04-05 07:28:31 51°14.012 2°55.448 349.2 -999 34 8.8
2005-04-05 07:28:35 51°14.012 2°55.449 349.2 -999 24 8.9
2005-04-05 07:28:40 51°14.013 2°55.449 349.2 -999 22 8.7
2005-04-05 07:28:45 51°14.013 2°55.449 349.2 -999 22 8.7
2005-04-05 07:28:51 51°14.013 2°55.449 349.2 -999 22 8.8
2005-04-05 07:28:55 51°14.013 2°55.449 349.2 -999 349 8.9
2005-04-05 07:29:00 51°14.013 2°55.449 349.2 -999 7 8.8
2005-04-05 07:29:06 51°14.013 2°55.449 349.2 -999 7 8.7
2005-04-05 07:29:10 51°14.013 2°55.449 349.2 -999 144 8.8
2005-04-05 07:29:15 51°14.013 2°55.449 349.2 -999 242 8.9
2005-04-05 07:29:21 51°14.013 2°55.449 349.2 -999 151 8.7
2005-04-05 07:29:25 51°14.013 2°55.449 349.2 -999 215 8.7
2005-04-05 07:29:31 51°14.013 2°55.449 349.2 -999 215 8.9
2005-04-05 07:29:35 51°14.013 2°55.449 349.1 -999 215 8.8
2005-04-05 07:29:41 51°14.013 2°55.45 349.1 -999 215 8.9
2005-04-05 07:29:45 51°14.013 2°55.45 349.1 -999 327 8.9
2005-04-05 07:29:50 51°14.013 2°55.45 349.1 -999 230 8.9
2005-04-05 07:29:55 51°14.013 2°55.449 349.1 -999 355 8.9
2005-04-05 07:30:01 51°14.013 2°55.449 349.1 -999 67 8.9
2005-04-05 07:30:05 51°14.012 2°55.449 349.1 -999 67 8.9
2005-04-05 07:30:10 51°14.012 2°55.449 349.1 -999 67 8.9
2005-04-05 07:30:15 51°14.012 2°55.449 349.1 -999 123 8.9
2005-04-05 07:30:21 51°14.012 2°55.449 349.1 -999 113 8.8
2005-04-05 07:30:25 51°14.011 2°55.448 349.1 -999 23 8.9
2005-04-05 07:30:30 51°14.011 2°55.448 349.1 -999 37 8.9
2005-04-05 07:30:35 51°14.011 2°55.448 349.1 -999 43 8.9
2005-04-05 07:30:41 51°14.011 2°55.448 349.1 -999 62 8.8
2005-04-05 07:30:44 51°14.011 2°55.448 349.1 -999 44 8.9
2005-04-05 07:30:51 51°14.011 2°55.448 349.1 -999 329 8.9
2005-04-05 07:30:55 51°14.011 2°55.448 349.1 -999 19 8.9
2005-04-05 07:31:01 51°14.011 2°55.448 349.1 -999 50 8.8
2005-04-05 07:31:05 51°14.011 2°55.448 349.1 -999 10 8.9
2005-04-05 07:31:11 51°14.011 2°55.448 349.1 -999 324 -999
2005-04-05 07:31:15 51°14.012 2°55.448 349.1 -999 23 8.9
2005-04-05 07:31:20 51°14.012 2°55.448 349.1 -999 337 8.9
2005-04-05 07:31:25 51°14.012 2°55.448 349.1 -999 66 8.8
2005-04-05 07:31:31 51°14.012 2°55.449 349.1 -999 39 8.8
2005-04-05 07:31:36 51°14.011 2°55.449 349.1 -999 57 8.9
2005-04-05 07:31:41 51°14.011 2°55.449 349.1 -999 336 8.8
2005-04-05 07:31:45 51°14.011 2°55.448 349.1 -999 17 8.9
2005-04-05 07:31:51 51°14.011 2°55.449 349.1 -999 337 8.9
2005-04-05 07:31:56 51°14.012 2°55.449 349.1 -999 73 8.8
2005-04-05 07:32:00 51°14.012 2°55.449 349.1 -999 73 -999
2005-04-05 07:32:06 51°14.012 2°55.449 349.1 -999 73 -999
2005-04-05 07:32:11 51°14.012 2°55.449 349.1 -999 73 8.8
2005-04-05 07:32:15 51°14.012 2°55.449 349.1 -999 43 8.9
2005-04-05 07:32:19 51°14.012 2°55.449 349.1 -999 38 8.8
2005-04-05 07:32:25 51°14.012 2°55.449 349.1 -999 64 8.9
2005-04-05 07:32:31 51°14.012 2°55.449 349.1 -999 58 8.9
2005-04-05 07:32:35 51°14.012 2°55.449 349.1 -999 41 -999
2005-04-05 07:32:41 51°14.012 2°55.449 349.1 -999 65 8.9
2005-04-05 07:32:46 51°14.012 2°55.449 349.1 -999 65 8.9
2005-04-05 07:32:50 51°14.012 2°55.449 349.1 -999 341 8.9
2005-04-05 07:32:55 51°14.012 2°55.449 349.1 -999 301 8.9
2005-04-05 07:33:01 51°14.012 2°55.449 349.1 -999 301 9
2005-04-05 07:33:05 51°14.012 2°55.449 349.1 -999 301 8.9
2005-04-05 07:33:10 51°14.012 2°55.449 349.1 -999 301 8.8
2005-04-05 07:33:16 51°14.012 2°55.449 349.1 -999 301 9
2005-04-05 07:33:20 51°14.012 2°55.449 349.1 -999 28 8.9
2005-04-05 07:33:25 51°14.012 2°55.448 349.1 -999 40 8.9
2005-04-05 07:33:31 51°14.012 2°55.449 349.1 -999 40 9
2005-04-05 07:33:36 51°14.012 2°55.449 349.1 -999 359 8.9
2005-04-05 07:33:41 51°14.012 2°55.449 349.1 -999 323 8.9
2005-04-05 07:33:45 51°14.012 2°55.449 349.1 -999 164 8.9
2005-04-05 07:33:50 51°14.012 2°55.449 349.1 -999 40 8.9
2005-04-05 07:33:55 51°14.012 2°55.449 349.1 -999 40 8.9
2005-04-05 07:34:01 51°14.012 2°55.448 349.1 -999 40 8.9
2005-04-05 07:34:05 51°14.012 2°55.448 349.1 -999 40 9
2005-04-05 07:34:11 51°14.012 2°55.448 349.1 -999 7 8.9
2005-04-05 07:34:15 51°14.012 2°55.448 349.1 -999 343 8.9
2005-04-05 07:34:20 51°14.012 2°55.448 349.1 -999 78 8.9
2005-04-05 07:34:25 51°14.012 2°55.448 349.1 -999 17 8.8
2005-04-05 07:34:31 51°14.012 2°55.448 349.1 -999 21 8.9
2005-04-05 07:34:36 51°14.012 2°55.448 349.1 -999 21 8.9
2005-04-05 07:34:41 51°14.012 2°55.449 349.1 -999 67 8.9
2005-04-05 07:34:46 51°14.012 2°55.449 349.1 -999 214 8.9
2005-04-05 07:34:50 51°14.012 2°55.449 349.1 -999 346 8.9
2005-04-05 07:34:55 51°14.012 2°55.449 349.1 -999 346 8.9
2005-04-05 07:35:01 51°14.012 2°55.449 349.1 -999 93 9
2005-04-05 07:35:04 51°14.012 2°55.449 349.1 -999 132 9
2005-04-05 07:35:11 51°14.012 2°55.449 349.1 -999 247 9
2005-04-05 07:35:15 51°14.011 2°55.449 349.1 -999 247 8.9
2005-04-05 07:35:20 51°14.011 2°55.449 349.1 -999 247 8.9
2005-04-05 07:35:26 51°14.011 2°55.449 349.1 -999 60 8.9
2005-04-05 07:35:31 51°14.011 2°55.448 349.1 -999 12 8.9
2005-04-05 07:35:35 51°14.011 2°55.448 349.1 -999 84 9
2005-04-05 07:35:41 51°14.011 2°55.448 349.1 -999 58 8.8
2005-04-05 07:35:45 51°14.011 2°55.448 349.1 -999 58 8.9
2005-04-05 07:35:51 51°14.011 2°55.448 349.1 -999 58 9
2005-04-05 07:35:55 51°14.011 2°55.448 349.1 -999 25 9
2005-04-05 07:36:01 51°14.011 2°55.448 349.1 -999 25 9
2005-04-05 07:36:05 51°14.011 2°55.448 349.1 -999 69 9
2005-04-05 07:36:11 51°14.011 2°55.448 349.1 -999 69 9
2005-04-05 07:36:15 51°14.01 2°55.447 349.1 -999 69 9
2005-04-05 07:36:21 51°14.01 2°55.447 349.1 -999 60 9
2005-04-05 07:36:25 51°14.01 2°55.447 349.1 -999 70 9
2005-04-05 07:36:31 51°14.01 2°55.447 349.1 -999 60 8.9
2005-04-05 07:36:35 51°14.01 2°55.447 349.1 -999 60 9
2005-04-05 07:36:41 51°14.01 2°55.447 349.1 -999 77 9
2005-04-05 07:36:45 51°14.01 2°55.448 349.1 -999 71 9
2005-04-05 07:36:51 51°14.011 2°55.448 349.1 -999 120 9
2005-04-05 07:36:55 51°14.011 2°55.448 349.1 -999 11 9
2005-04-05 07:37:01 51°14.011 2°55.448 349.1 -999 11 9
2005-04-05 07:37:05 51°14.011 2°55.448 349.1 -999 89 9
2005-04-05 07:37:11 51°14.011 2°55.448 349.1 -999 206 9
2005-04-05 07:37:15 51°14.011 2°55.448 349.1 -999 175 9
2005-04-05 07:37:21 51°14.011 2°55.448 349.1 -999 79 9
2005-04-05 07:37:25 51°14.011 2°55.448 349.1 -999 79 9
2005-04-05 07:37:31 51°14.011 2°55.448 349.1 -999 60 -999
2005-04-05 07:37:35 51°14.011 2°55.448 349.1 -999 284 9
2005-04-05 07:37:40 51°14.011 2°55.448 349.1 -999 215 8.9
2005-04-05 07:37:45 51°14.011 2°55.448 349.1 -999 215 8.9
2005-04-05 07:37:51 51°14.011 2°55.448 349.1 -999 215 9.2
2005-04-05 07:37:55 51°14.011 2°55.448 349.1 -999 53 8.9
2005-04-05 07:38:01 51°14.011 2°55.448 349.1 -999 4 9.4
2005-04-05 07:38:05 51°14.011 2°55.447 349.1 -999 39 8.9
2005-04-05 07:38:11 51°14.01 2°55.447 349.1 -999 39 9.1
2005-04-05 07:38:15 51°14.01 2°55.447 349.1 -999 39 8.9
2005-04-05 07:38:20 51°14.01 2°55.447 349.1 -999 63 9.1
2005-04-05 07:38:24 51°14.01 2°55.447 349.1 -999 58 9
2005-04-05 07:38:31 51°14.01 2°55.447 349.1 -999 58 8.9
2005-04-05 07:38:35 51°14.011 2°55.447 349.1 -999 90 9.3
2005-04-05 07:38:40 51°14.012 2°55.448 349.1 -999 90 9
2005-04-05 07:38:46 51°14.012 2°55.448 349.1 -999 208 8.9
2005-04-05 07:38:50 51°14.012 2°55.448 349.1 -999 200 9.1
2005-04-05 07:38:55 51°14.012 2°55.448 349.1 -999 23 8.9
2005-04-05 07:39:01 51°14.012 2°55.448 349.1 -999 23 8.9
2005-04-05 07:39:05 51°14.012 2°55.449 349.1 -999 180 9
2005-04-05 07:39:11 51°14.012 2°55.449 349.1 -999 112 9
2005-04-05 07:39:16 51°14.012 2°55.449 349.1 -999 112 9
2005-04-05 07:39:21 51°14.012 2°55.449 349.1 -999 325 8.9
2005-04-05 07:39:25 51°14.012 2°55.449 349.1 -999 325 9
2005-04-05 07:39:31 51°14.012 2°55.449 349.1 -999 152 9.1
2005-04-05 07:39:35 51°14.012 2°55.449 349.1 -999 171 9
2005-04-05 07:39:41 51°14.012 2°55.448 349.1 -999 171 9.1
2005-04-05 07:39:46 51°14.012 2°55.449 349.1 0.1 200 9.1
2005-04-05 07:39:51 51°14.012 2°55.449 349.1 -999 64 9.1
2005-04-05 07:39:55 51°14.012 2°55.449 349.1 -999 44 9.1
2005-04-05 07:39:59 51°14.012 2°55.449 349.1 -999 19 9.1
2005-04-05 07:40:05 51°14.012 2°55.449 349.1 -999 88 9
2005-04-05 07:40:11 51°14.012 2°55.449 349.1 -999 109 9.1
2005-04-05 07:40:15 51°14.012 2°55.448 349.1 -999 61 9
2005-04-05 07:40:20 51°14.012 2°55.448 349.1 -999 342 9.1
2005-04-05 07:40:25 51°14.012 2°55.448 349.1 -999 342 9.1
2005-04-05 07:40:31 51°14.012 2°55.448 349.1 -999 342 9.1
2005-04-05 07:40:35 51°14.012 2°55.448 349.1 -999 45 9.1
2005-04-05 07:40:39 51°14.011 2°55.448 349.1 -999 5 9.1
2005-04-05 07:40:45 51°14.011 2°55.448 349.1 -999 5 9.1
2005-04-05 07:40:51 51°14.012 2°55.449 349.1 -999 5 9.1
2005-04-05 07:40:55 51°14.012 2°55.449 349.1 -999 5 9.1
2005-04-05 07:41:01 51°14.012 2°55.449 349.1 -999 36 9.1
2005-04-05 07:41:05 51°14.013 2°55.449 349.1 -999 283 9
2005-04-05 07:41:11 51°14.013 2°55.449 349.1 -999 283 9
2005-04-05 07:41:15 51°14.013 2°55.449 349.1 -999 93 9
2005-04-05 07:41:20 51°14.013 2°55.449 349.1 -999 128 9
2005-04-05 07:41:25 51°14.013 2°55.449 349.1 -999 96 9.1
2005-04-05 07:41:30 51°14.013 2°55.449 349.1 -999 96 9.1
2005-04-05 07:41:35 51°14.013 2°55.449 349.1 -999 295 9.1
2005-04-05 07:41:41 51°14.013 2°55.449 349.1 -999 156 9.1
2005-04-05 07:41:45 51°14.013 2°55.449 349.1 -999 156 9
2005-04-05 07:41:51 51°14.013 2°55.449 349.1 -999 156 9
2005-04-05 07:41:55 51°14.013 2°55.449 349.1 -999 229 9
2005-04-05 07:42:01 51°14.013 2°55.449 349.1 -999 162 9.1
2005-04-05 07:42:05 51°14.013 2°55.449 349.1 -999 295 9.1
2005-04-05 07:42:11 51°14.013 2°55.449 349.1 -999 295 9.1
2005-04-05 07:42:15 51°14.013 2°55.449 349.1 -999 295 9.1
2005-04-05 07:42:21 51°14.013 2°55.449 349.1 -999 295 9.1
2005-04-05 07:42:25 51°14.013 2°55.449 349.1 -999 295 9.1
2005-04-05 07:42:30 51°14.013 2°55.449 349.1 -999 74 9.1
2005-04-05 07:42:35 51°14.013 2°55.449 349.1 -999 42 9.1
2005-04-05 07:42:41 51°14.012 2°55.449 349.1 -999 49 9
2005-04-05 07:42:45 51°14.012 2°55.449 349.1 -999 49 9.1
2005-04-05 07:42:50 51°14.012 2°55.449 349.1 -999 112 9.1
2005-04-05 07:42:55 51°14.012 2°55.449 349.1 -999 72 9
2005-04-05 07:43:01 51°14.012 2°55.449 349.1 -999 86 9.1
2005-04-05 07:43:05 51°14.012 2°55.449 349.1 -999 82 9.1
2005-04-05 07:43:11 51°14.012 2°55.449 349.1 -999 214 9
2005-04-05 07:43:15 51°14.012 2°55.449 349.1 -999 33 9.1
2005-04-05 07:43:20 51°14.012 2°55.449 349.1 -999 79 9.1
2005-04-05 07:43:26 51°14.012 2°55.449 349.1 -999 55 9
2005-04-05 07:43:31 51°14.012 2°55.449 349.1 -999 55 9.1
2005-04-05 07:43:35 51°14.012 2°55.449 349.1 -999 14 9
2005-04-05 07:43:41 51°14.013 2°55.449 349.1 -999 355 9.1
2005-04-05 07:43:45 51°14.013 2°55.449 349.1 -999 355 9.1
2005-04-05 07:43:50 51°14.012 2°55.448 349.1 -999 355 9.1
2005-04-05 07:43:55 51°14.012 2°55.448 349.1 -999 356 9.1
2005-04-05 07:44:01 51°14.012 2°55.448 349.1 -999 102 9
2005-04-05 07:44:05 51°14.012 2°55.448 349.1 -999 102 9.1
2005-04-05 07:44:11 51°14.012 2°55.448 349.1 -999 7 9.1
2005-04-05 07:44:15 51°14.012 2°55.448 349.1 -999 30 9.1
2005-04-05 07:44:21 51°14.012 2°55.448 349.1 -999 73 9.1
2005-04-05 07:44:25 51°14.012 2°55.448 349.1 -999 18 9.1
2005-04-05 07:44:31 51°14.012 2°55.448 349.1 -999 18 9.1
2005-04-05 07:44:35 51°14.012 2°55.448 349.1 -999 319 9.1
2005-04-05 07:44:41 51°14.012 2°55.448 349.1 -999 45 9.1
2005-04-05 07:44:45 51°14.012 2°55.448 349.1 -999 61 9.1
2005-04-05 07:44:51 51°14.012 2°55.448 349.1 -999 61 9.2
2005-04-05 07:44:55 51°14.012 2°55.448 349.1 -999 61 9.1
2005-04-05 07:45:00 51°14.012 2°55.448 349.1 -999 61 9.1
2005-04-05 07:45:05 51°14.012 2°55.448 349.1 -999 88 9.1
2005-04-05 07:45:11 51°14.011 2°55.448 349.1 -999 58 9.1
2005-04-05 07:45:15 51°14.011 2°55.448 349.1 -999 5 9.1
2005-04-05 07:45:21 51°14.011 2°55.448 349.1 -999 15 9.1
2005-04-05 07:45:25 51°14.011 2°55.448 349.1 -999 65 9.1
2005-04-05 07:45:31 51°14.011 2°55.448 349.1 -999 63 9.2
2005-04-05 07:45:35 51°14.011 2°55.448 349.1 -999 63 9.1
2005-04-05 07:45:40 51°14.011 2°55.447 349.1 -999 317 9.1
2005-04-05 07:45:45 51°14.011 2°55.447 349.1 -999 105 9.1
2005-04-05 07:45:51 51°14.011 2°55.447 349.1 -999 127 9.1
2005-04-05 07:45:55 51°14.011 2°55.447 349.1 -999 38 9.2
2005-04-05 07:45:59 51°14.012 2°55.448 349.1 -999 126 9.1
2005-04-05 07:46:04 51°14.012 2°55.448 349.1 -999 320 9.1
2005-04-05 07:46:11 51°14.012 2°55.448 349.2 -999 35 9.1
2005-04-05 07:46:15 51°14.012 2°55.448 349.2 -999 2 9.1
2005-04-05 07:46:21 51°14.012 2°55.448 349.2 -999 300 9.1
2005-04-05 07:46:25 51°14.012 2°55.448 349.2 -999 130 9.1
2005-04-05 07:46:30 51°14.012 2°55.448 349.2 -999 38 9.1
2005-04-05 07:46:35 51°14.012 2°55.448 349.2 -999 38 9.2
2005-04-05 07:46:41 51°14.012 2°55.448 349.2 -999 38 9.1
2005-04-05 07:46:45 51°14.011 2°55.448 349.2 -999 259 9.1
2005-04-05 07:46:51 51°14.011 2°55.448 349.2 -999 259 9.1
2005-04-05 07:46:55 51°14.012 2°55.448 349.2 -999 105 9
2005-04-05 07:47:01 51°14.012 2°55.448 349.2 -999 19 9.1
2005-04-05 07:47:05 51°14.012 2°55.448 349.2 -999 244 9.1
2005-04-05 07:47:11 51°14.012 2°55.448 349.2 -999 258 9.2
2005-04-05 07:47:16 51°14.011 2°55.448 349.2 -999 354 -999
2005-04-05 07:47:21 51°14.011 2°55.448 349.2 -999 347 9.1
2005-04-05 07:47:25 51°14.011 2°55.448 349.2 -999 328 9.1
2005-04-05 07:47:30 51°14.011 2°55.448 349.2 -999 352 9.1
2005-04-05 07:47:35 51°14.011 2°55.448 349.2 -999 352 9
2005-04-05 07:47:41 51°14.011 2°55.448 349.2 -999 352 9.1
2005-04-05 07:47:46 51°14.011 2°55.448 349.2 -999 352 9.2
2005-04-05 07:47:51 51°14.011 2°55.448 349.2 -999 87 9
2005-04-05 07:47:55 51°14.011 2°55.448 349.3 -999 87 9.1
2005-04-05 07:48:01 51°14.011 2°55.448 349.3 -999 87 9.1
2005-04-05 07:48:04 51°14.011 2°55.448 349.3 -999 84 9.1
2005-04-05 07:48:11 51°14.011 2°55.448 349.3 -999 84 9.1
2005-04-05 07:48:15 51°14.011 2°55.448 349.3 -999 28 9.2
2005-04-05 07:48:21 51°14.011 2°55.448 349.3 -999 338 9.2
2005-04-05 07:48:25 51°14.011 2°55.448 349.3 -999 48 9.2
2005-04-05 07:48:31 51°14.011 2°55.448 349.3 -999 168 9.2
2005-04-05 07:48:35 51°14.011 2°55.448 349.3 -999 46 9.1
2005-04-05 07:48:41 51°14.011 2°55.448 349.3 -999 51 9.3
2005-04-05 07:48:45 51°14.011 2°55.448 349.3 -999 58 9.2
2005-04-05 07:48:51 51°14.011 2°55.448 349.3 -999 58 9.2
2005-04-05 07:48:55 51°14.011 2°55.448 349.3 -999 42 9.1
2005-04-05 07:49:01 51°14.011 2°55.448 349.4 -999 64 9.2
2005-04-05 07:49:05 51°14.011 2°55.448 349.3 -999 64 9.2
2005-04-05 07:49:11 51°14.011 2°55.448 349.3 -999 64 9.2
2005-04-05 07:49:15 51°14.011 2°55.448 349.3 -999 14 9.2
2005-04-05 07:49:21 51°14.011 2°55.448 349.3 -999 16 9.2
2005-04-05 07:49:25 51°14.011 2°55.448 349.3 -999 50 9.2
2005-04-05 07:49:31 51°14.011 2°55.448 349.3 -999 16 9.2
2005-04-05 07:49:35 51°14.011 2°55.448 349.3 -999 67 9.2
2005-04-05 07:49:40 51°14.011 2°55.448 349.3 -999 24 9.2
2005-04-05 07:49:45 51°14.011 2°55.448 349.4 -999 37 9.2
2005-04-05 07:49:51 51°14.011 2°55.448 349.4 -999 37 9.2
2005-04-05 07:49:55 51°14.011 2°55.448 349.4 -999 32 9.2
2005-04-05 07:50:01 51°14.011 2°55.448 349.4 -999 23 9.2
2005-04-05 07:50:05 51°14.011 2°55.448 349.4 -999 42 9.2
2005-04-05 07:50:11 51°14.011 2°55.448 349.4 -999 356 9.2
2005-04-05 07:50:15 51°14.011 2°55.448 349.4 -999 225 9.2
2005-04-05 07:50:21 51°14.011 2°55.448 349.4 -999 351 9.2
2005-04-05 07:50:25 51°14.011 2°55.448 349.4 -999 351 9.2
2005-04-05 07:50:29 51°14.011 2°55.448 349.4 -999 69 9.2
2005-04-05 07:50:35 51°14.011 2°55.448 349.4 -999 336 9.2
2005-04-05 07:50:41 51°14.011 2°55.448 349.4 -999 35 9.2
2005-04-05 07:50:45 51°14.011 2°55.448 349.4 -999 35 9.2
2005-04-05 07:50:50 51°14.011 2°55.448 349.4 -999 35 9.2
2005-04-05 07:50:55 51°14.011 2°55.447 349.4 -999 30 9.2
2005-04-05 07:51:01 51°14.011 2°55.447 349.4 -999 67 9.2
2005-04-05 07:51:05 51°14.011 2°55.447 349.4 -999 67 9.2
2005-04-05 07:51:10 51°14.011 2°55.447 349.4 -999 15 9.2
2005-04-05 07:51:15 51°14.011 2°55.447 349.4 -999 194 9.2
2005-04-05 07:51:21 51°14.011 2°55.448 349.5 -999 247 9.2
2005-04-05 07:51:25 51°14.011 2°55.448 349.5 -999 2 9.2
2005-04-05 07:51:31 51°14.011 2°55.448 349.5 -999 251 9.2
2005-04-05 07:51:35 51°14.011 2°55.448 349.5 -999 251 9.2
2005-04-05 07:51:40 51°14.011 2°55.448 349.5 -999 77 9.2
2005-04-05 07:51:46 51°14.011 2°55.448 349.5 -999 77 9.1
2005-04-05 07:51:51 51°14.011 2°55.448 349.5 -999 77 9.2
2005-04-05 07:51:55 51°14.011 2°55.448 349.5 -999 54 9.2
2005-04-05 07:52:01 51°14.011 2°55.448 349.5 -999 118 9.2
2005-04-05 07:52:05 51°14.011 2°55.448 349.5 -999 175 9.2
2005-04-05 07:52:11 51°14.011 2°55.448 349.5 -999 175 9.2
2005-04-05 07:52:15 51°14.011 2°55.447 349.5 -999 45 9.2
2005-04-05 07:52:20 51°14.011 2°55.447 349.5 -999 355 9.1
2005-04-05 07:52:25 51°14.011 2°55.447 349.5 -999 17 9.2
2005-04-05 07:52:31 51°14.011 2°55.447 349.5 -999 26 9.3
2005-04-05 07:52:35 51°14.011 2°55.448 349.5 -999 53 9.3
2005-04-05 07:52:41 51°14.011 2°55.447 349.5 -999 187 9.3
2005-04-05 07:52:45 51°14.011 2°55.447 349.5 -999 187 9.2
2005-04-05 07:52:50 51°14.011 2°55.447 349.5 -999 58 9.2
2005-04-05 07:52:55 51°14.011 2°55.447 349.5 -999 49 9.2
2005-04-05 07:53:01 51°14.011 2°55.447 349.5 -999 49 9.3
2005-04-05 07:53:05 51°14.011 2°55.447 349.5 -999 48 9.2
2005-04-05 07:53:11 51°14.011 2°55.448 349.5 -999 48 9.3
2005-04-05 07:53:15 51°14.011 2°55.448 349.5 -999 44 9.3
2005-04-05 07:53:21 51°14.011 2°55.448 349.5 -999 9 9.3
2005-04-05 07:53:25 51°14.011 2°55.448 349.5 -999 42 9.3
2005-04-05 07:53:31 51°14.011 2°55.448 349.5 -999 77 9.3
2005-04-05 07:53:35 51°14.011 2°55.447 349.5 -999 342 9.2
2005-04-05 07:53:41 51°14.011 2°55.448 349.5 -999 342 9.3
2005-04-05 07:53:45 51°14.011 2°55.448 349.5 -999 342 9.2
2005-04-05 07:53:51 51°14.011 2°55.447 349.5 -999 81 9.2
2005-04-05 07:53:55 51°14.011 2°55.447 349.5 -999 42 9.2
2005-04-05 07:54:01 51°14.011 2°55.448 349.5 -999 70 9.2
2005-04-05 07:54:04 51°14.011 2°55.448 349.5 -999 298 9.2
2005-04-05 07:54:11 51°14.011 2°55.448 349.5 -999 214 9.2
2005-04-05 07:54:15 51°14.012 2°55.448 349.5 -999 50 9.3
2005-04-05 07:54:20 51°14.012 2°55.448 349.5 -999 50 9.3
2005-04-05 07:54:25 51°14.012 2°55.448 349.5 -999 44 9.3
2005-04-05 07:54:31 51°14.012 2°55.448 349.6 -999 12 9.2
2005-04-05 07:54:35 51°14.012 2°55.448 349.6 -999 6 9.2
2005-04-05 07:54:41 51°14.012 2°55.448 349.6 -999 1 9.3
2005-04-05 07:54:45 51°14.012 2°55.448 349.6 -999 41 9.3
2005-04-05 07:54:51 51°14.012 2°55.448 349.6 -999 41 9.2
2005-04-05 07:54:55 51°14.012 2°55.448 349.6 -999 267 9.3
2005-04-05 07:54:59 51°14.012 2°55.448 349.6 -999 267 9.3
2005-04-05 07:55:05 51°14.012 2°55.448 349.6 -999 192 9.3
2005-04-05 07:55:10 51°14.012 2°55.448 349.6 -999 192 9.3
2005-04-05 07:55:15 51°14.012 2°55.448 349.6 -999 192 9.3
2005-04-05 07:55:19 51°14.012 2°55.448 349.6 -999 38 9.3
2005-04-05 07:55:25 51°14.012 2°55.448 349.6 -999 37 9.3
2005-04-05 07:55:29 51°14.012 2°55.448 349.6 -999 37 9.3
2005-04-05 07:55:35 51°14.012 2°55.448 349.6 -999 43 9.3
2005-04-05 07:55:41 51°14.012 2°55.448 349.6 -999 43 9.3
2005-04-05 07:55:46 51°14.012 2°55.448 349.6 -999 43 9.3
2005-04-05 07:55:50 51°14.012 2°55.448 349.6 -999 86 9.3
2005-04-05 07:55:55 51°14.012 2°55.448 349.6 -999 113 9.3
2005-04-05 07:56:01 51°14.012 2°55.448 349.6 -999 303 9.3
2005-04-05 07:56:06 51°14.012 2°55.448 349.6 -999 303 9.3
2005-04-05 07:56:11 51°14.012 2°55.448 349.6 -999 32 9.3
2005-04-05 07:56:15 51°14.012 2°55.448 349.6 -999 262 9.3
2005-04-05 07:56:21 51°14.012 2°55.448 349.6 -999 18 9.3
2005-04-05 07:56:25 51°14.012 2°55.448 349.6 -999 18 9.3
2005-04-05 07:56:31 51°14.013 2°55.448 349.6 -999 18 9.3
2005-04-05 07:56:35 51°14.013 2°55.448 349.6 -999 18 9.3
2005-04-05 07:56:41 51°14.013 2°55.448 349.6 -999 47 9.3
2005-04-05 07:56:45 51°14.013 2°55.448 349.6 -999 241 9.3
2005-04-05 07:56:51 51°14.013 2°55.448 349.6 -999 322 9.3
2005-04-05 07:56:56 51°14.013 2°55.448 349.6 -999 322 9.3
2005-04-05 07:57:00 51°14.013 2°55.448 349.6 -999 255 9.4
2005-04-05 07:57:05 51°14.013 2°55.448 349.6 -999 255 9.3
2005-04-05 07:57:11 51°14.013 2°55.448 349.6 -999 255 9.4
2005-04-05 07:57:15 51°14.013 2°55.448 349.6 -999 242 9.4
2005-04-05 07:57:21 51°14.013 2°55.448 349.6 -999 37 9.4
2005-04-05 07:57:25 51°14.013 2°55.448 349.6 -999 37 9.3
2005-04-05 07:57:30 51°14.013 2°55.448 349.6 -999 329 9.3
2005-04-05 07:57:35 51°14.013 2°55.448 349.6 -999 71 9.4
2005-04-05 07:57:41 51°14.013 2°55.448 349.7 -999 71 9.3
2005-04-05 07:57:45 51°14.013 2°55.448 349.7 -999 248 9.4
2005-04-05 07:57:51 51°14.013 2°55.448 349.7 -999 26 9.4
2005-04-05 07:57:55 51°14.013 2°55.448 349.7 -999 125 9.4
2005-04-05 07:58:01 51°14.013 2°55.448 349.7 -999 314 9.3
2005-04-05 07:58:05 51°14.013 2°55.448 349.7 -999 314 9.3
2005-04-05 07:58:10 51°14.013 2°55.448 349.7 -999 314 9.3
2005-04-05 07:58:15 51°14.013 2°55.448 349.7 -999 314 9.3
2005-04-05 07:58:21 51°14.013 2°55.448 349.7 -999 210 9.2
2005-04-05 07:58:25 51°14.013 2°55.448 349.7 -999 297 9.2
2005-04-05 07:58:30 51°14.013 2°55.448 349.7 -999 302 9.4
2005-04-05 07:58:35 51°14.012 2°55.448 349.7 -999 302 9.3
2005-04-05 07:58:40 51°14.012 2°55.448 349.7 -999 118 9.4
2005-04-05 07:58:45 51°14.012 2°55.448 349.7 -999 118 9.4
2005-04-05 07:58:51 51°14.012 2°55.448 349.7 -999 352 9.3
2005-04-05 07:58:55 51°14.012 2°55.448 349.7 -999 30 9.3
2005-04-05 07:59:01 51°14.012 2°55.448 349.7 -999 331 9.4
2005-04-05 07:59:05 51°14.012 2°55.448 349.7 -999 331 9.4
2005-04-05 07:59:11 51°14.012 2°55.448 349.7 -999 27 9.4
2005-04-05 07:59:15 51°14.012 2°55.448 349.7 -999 105 9.3
2005-04-05 07:59:21 51°14.012 2°55.448 349.7 -999 10 9.3
2005-04-05 07:59:25 51°14.012 2°55.448 349.7 -999 10 9.4
2005-04-05 07:59:31 51°14.012 2°55.448 349.7 -999 29 9.8
2005-04-05 07:59:36 51°14.012 2°55.448 349.7 -999 29 9.4
2005-04-05 07:59:41 51°14.012 2°55.448 349.7 -999 29 9.4
2005-04-05 07:59:45 51°14.012 2°55.448 349.7 -999 297 9.4
2005-04-05 07:59:48 51°14.012 2°55.448 349.7 -999 351 9.4
2005-04-05 07:59:55 51°14.012 2°55.448 349.7 -999 75 9.3
2005-04-05 08:00:01 51°14.012 2°55.448 349.7 -999 189 9.4
2005-04-05 08:00:06 51°14.012 2°55.448 349.7 -999 189 9.7
2005-04-05 08:00:10 51°14.012 2°55.448 349.7 -999 49 9.3
2005-04-05 08:00:15 51°14.012 2°55.448 349.7 -999 49 9.3
2005-04-05 08:00:21 51°14.012 2°55.448 349.7 -999 49 9.2
2005-04-05 08:00:25 51°14.012 2°55.448 349.7 -999 65 9.5
2005-04-05 08:00:31 51°14.012 2°55.448 349.7 -999 66 9.3
2005-04-05 08:00:35 51°14.012 2°55.448 349.7 -999 159 9.4
2005-04-05 08:00:41 51°14.012 2°55.448 349.7 -999 159 9.4
2005-04-05 08:00:45 51°14.012 2°55.448 349.7 -999 4 9.4
2005-04-05 08:00:51 51°14.012 2°55.448 349.7 -999 5 9.4
2005-04-05 08:00:55 51°14.012 2°55.447 349.7 -999 5 9.5
2005-04-05 08:00:59 51°14.012 2°55.447 349.7 -999 284 9.4
2005-04-05 08:01:05 51°14.012 2°55.447 349.7 -999 84 9.4
2005-04-05 08:01:11 51°14.012 2°55.447 349.7 -999 12 9.4
2005-04-05 08:01:15 51°14.012 2°55.447 349.7 -999 321 9.4
2005-04-05 08:01:21 51°14.012 2°55.447 349.7 -999 321 9.4
2005-04-05 08:01:25 51°14.012 2°55.447 349.8 -999 358 9.4
2005-04-05 08:01:31 51°14.011 2°55.447 349.8 -999 26 9.4
2005-04-05 08:01:36 51°14.011 2°55.447 349.8 -999 304 9.4
2005-04-05 08:01:41 51°14.011 2°55.447 349.8 -999 334 9.4
2005-04-05 08:01:45 51°14.011 2°55.447 349.8 -999 298 9.5
2005-04-05 08:01:51 51°14.011 2°55.447 349.8 -999 54 9.5
2005-04-05 08:01:55 51°14.011 2°55.447 349.8 -999 54 9.5
2005-04-05 08:01:59 51°14.011 2°55.447 349.8 -999 54 9.5
2005-04-05 08:02:05 51°14.011 2°55.447 349.8 -999 63 9.5
2005-04-05 08:02:11 51°14.011 2°55.447 349.8 -999 63 9.5
2005-04-05 08:02:15 51°14.011 2°55.447 349.8 -999 62 9.5
2005-04-05 08:02:21 51°14.011 2°55.447 349.8 -999 238 9.5
2005-04-05 08:02:25 51°14.011 2°55.447 349.8 -999 57 9.6
2005-04-05 08:02:30 51°14.011 2°55.447 349.8 -999 358 9.4
2005-04-05 08:02:35 51°14.011 2°55.447 349.8 -999 242 9.4
2005-04-05 08:02:40 51°14.011 2°55.447 349.8 -999 76 9.4
2005-04-05 08:02:45 51°14.011 2°55.447 349.8 -999 68 9.4
2005-04-05 08:02:51 51°14.011 2°55.447 349.8 -999 296 9.5
2005-04-05 08:02:55 51°14.011 2°55.447 349.8 -999 56 9.4
2005-04-05 08:03:00 51°14.011 2°55.447 349.8 -999 62 9.5
2005-04-05 08:03:05 51°14.011 2°55.447 349.8 -999 73 9.5
2005-04-05 08:03:11 51°14.011 2°55.447 349.8 -999 -999 9.5
2005-04-05 08:03:15 51°14.011 2°55.447 349.8 -999 357 9.5
2005-04-05 08:03:21 51°14.011 2°55.447 349.8 -999 166 9.4
2005-04-05 08:03:25 51°14.011 2°55.447 349.8 -999 117 9.4
2005-04-05 08:03:31 51°14.011 2°55.447 349.8 -999 11 9.5
2005-04-05 08:03:35 51°14.011 2°55.447 349.8 -999 334 9.5
2005-04-05 08:03:40 51°14.011 2°55.447 349.8 -999 21 9.4
2005-04-05 08:03:45 51°14.011 2°55.447 349.8 -999 5 9.4
2005-04-05 08:03:51 51°14.011 2°55.447 349.8 -999 307 9.5
2005-04-05 08:03:55 51°14.011 2°55.447 349.8 -999 151 9.5
2005-04-05 08:04:01 51°14.011 2°55.447 349.8 -999 17 9.5
2005-04-05 08:04:05 51°14.011 2°55.447 349.8 -999 17 9.5
2005-04-05 08:04:10 51°14.011 2°55.447 349.8 -999 358 9.4
2005-04-05 08:04:15 51°14.011 2°55.447 349.8 -999 33 9.5
2005-04-05 08:04:21 51°14.011 2°55.447 349.8 -999 33 9.5
2005-04-05 08:04:25 51°14.011 2°55.447 349.8 -999 327 9.5
2005-04-05 08:04:31 51°14.011 2°55.447 349.8 -999 303 9.5
2005-04-05 08:04:35 51°14.011 2°55.447 349.8 -999 89 9.5
2005-04-05 08:04:41 51°14.011 2°55.448 349.8 -999 247 9.8
2005-04-05 08:04:45 51°14.011 2°55.447 349.8 -999 90 9.5
2005-04-05 08:04:47 51°14.011 2°55.448 349.8 -999 46 9.5
2005-04-05 08:04:56 51°14.011 2°55.447 349.8 -999 14 9.4
2005-04-05 08:04:59 51°14.011 2°55.447 349.8 -999 70 9.4
2005-04-05 08:05:04 51°14.011 2°55.447 349.8 -999 263 -999
2005-04-05 08:05:11 51°14.011 2°55.447 349.8 -999 8 9.5
2005-04-05 08:05:15 51°14.011 2°55.447 349.8 -999 37 9.5
2005-04-05 08:05:21 51°14.011 2°55.447 349.8 -999 243 9.5
2005-04-05 08:05:25 51°14.011 2°55.447 349.8 -999 296 9.5
2005-04-05 08:05:29 51°14.011 2°55.447 349.8 -999 290 9.5
2005-04-05 08:05:36 51°14.011 2°55.447 349.8 -999 290 9.5
2005-04-05 08:05:39 51°14.011 2°55.447 349.9 -999 62 9.5
2005-04-05 08:05:45 51°14.011 2°55.447 349.9 -999 181 9.5
2005-04-05 08:05:51 51°14.011 2°55.447 349.8 -999 283 9.5
2005-04-05 08:05:55 51°14.011 2°55.447 349.8 -999 129 9.4
2005-04-05 08:06:00 51°14.011 2°55.447 349.8 -999 60 9.5
2005-04-05 08:06:05 51°14.012 2°55.447 349.8 -999 111 9.5
2005-04-05 08:06:11 51°14.012 2°55.448 349.8 -999 331 9.5
2005-04-05 08:06:15 51°14.012 2°55.448 349.8 -999 141 9.4
2005-04-05 08:06:20 51°14.012 2°55.448 349.8 -999 141 9.5
2005-04-05 08:06:24 51°14.012 2°55.447 349.8 -999 306 9.5
2005-04-05 08:06:30 51°14.012 2°55.447 349.8 -999 322 9.5
2005-04-05 08:06:35 51°14.012 2°55.447 349.8 -999 17 9.5
2005-04-05 08:06:40 51°14.012 2°55.447 349.8 -999 59 9.6
2005-04-05 08:06:45 51°14.012 2°55.447 349.8 -999 267 9.6
2005-04-05 08:06:48 51°14.012 2°55.447 349.8 -999 359 9.6
2005-04-05 08:06:55 51°14.012 2°55.447 349.8 -999 -999 9.5
2005-04-05 08:06:59 51°14.012 2°55.447 349.8 -999 345 9.5
2005-04-05 08:07:04 51°14.012 2°55.447 349.8 -999 37 9.4
2005-04-05 08:07:10 51°14.012 2°55.447 349.9 -999 279 9.5
2005-04-05 08:07:15 51°14.012 2°55.447 349.9 -999 279 9.5
2005-04-05 08:07:20 51°14.012 2°55.447 349.8 -999 314 9.4
2005-04-05 08:07:24 51°14.012 2°55.447 349.8 -999 72 9.5
2005-04-05 08:07:30 51°14.012 2°55.447 349.8 -999 58 9.5
2005-04-05 08:07:34 51°14.012 2°55.447 349.8 -999 320 9.5
2005-04-05 08:07:40 51°14.012 2°55.447 349.8 -999 32 9.5
2005-04-05 08:07:44 51°14.012 2°55.447 349.8 -999 338 9.5
2005-04-05 08:07:50 51°14.012 2°55.447 349.8 -999 347 9.5
2005-04-05 08:07:55 51°14.012 2°55.447 349.8 -999 258 9.5
2005-04-05 08:08:00 51°14.012 2°55.448 349.9 -999 204 9.4
2005-04-05 08:08:05 51°14.012 2°55.448 349.9 -999 26 9.4
2005-04-05 08:08:10 51°14.012 2°55.448 349.9 -999 311 9.5
2005-04-05 08:08:16 51°14.012 2°55.448 349.9 -999 239 9.4
2005-04-05 08:08:20 51°14.012 2°55.447 349.9 -999 247 9.5
2005-04-05 08:08:24 51°14.012 2°55.448 349.9 -999 280 9.4
2005-04-05 08:08:31 51°14.012 2°55.448 349.9 -999 247 9.6
2005-04-05 08:08:35 51°14.012 2°55.448 349.9 -999 247 9.6
2005-04-05 08:08:40 51°14.012 2°55.447 349.9 -999 260 9.4
2005-04-05 08:08:44 51°14.012 2°55.448 349.9 -999 203 9.5
2005-04-05 08:08:50 51°14.012 2°55.447 349.9 -999 21 9.5
2005-04-05 08:08:55 51°14.012 2°55.448 349.9 -999 288 9.6
2005-04-05 08:09:00 51°14.012 2°55.448 349.9 -999 288 9.5
2005-04-05 08:09:04 51°14.012 2°55.448 349.9 -999 319 9.6
2005-04-05 08:09:10 51°14.012 2°55.448 349.9 -999 88 9.5
2005-04-05 08:09:14 51°14.012 2°55.448 349.9 -999 325 9.6
2005-04-05 08:09:20 51°14.012 2°55.448 349.9 -999 96 9.5
2005-04-05 08:09:26 51°14.012 2°55.448 349.9 -999 153 9.5
2005-04-05 08:09:30 51°14.012 2°55.448 349.9 -999 28 9.6
2005-04-05 08:09:35 51°14.012 2°55.448 349.9 -999 320 9.6
2005-04-05 08:09:40 51°14.012 2°55.448 349.9 -999 58 9.6
2005-04-05 08:09:46 51°14.012 2°55.448 349.9 -999 168 9.6
2005-04-05 08:09:50 51°14.012 2°55.448 349.9 -999 168 9.5
2005-04-05 08:09:55 51°14.013 2°55.448 349.9 -999 315 9.6
2005-04-05 08:10:00 51°14.013 2°55.448 349.8 -999 315 9.4
2005-04-05 08:10:04 51°14.013 2°55.448 349.8 -999 270 9.6
2005-04-05 08:10:10 51°14.013 2°55.448 349.8 -999 208 9.5
2005-04-05 08:10:15 51°14.013 2°55.448 349.8 -999 273 9.6
2005-04-05 08:10:20 51°14.013 2°55.448 349.8 -999 340 9.5
2005-04-05 08:10:24 51°14.013 2°55.448 349.8 -999 33 9.6
2005-04-05 08:10:30 51°14.013 2°55.448 349.8 -999 303 9.6
2005-04-05 08:10:35 51°14.013 2°55.448 349.8 -999 212 9.6
2005-04-05 08:10:40 51°14.013 2°55.448 349.8 -999 227 9.7
2005-04-05 08:10:44 51°14.013 2°55.448 349.8 -999 35 9.7
2005-04-05 08:10:50 51°14.013 2°55.448 349.8 -999 359 9.5
2005-04-05 08:10:55 51°14.013 2°55.448 349.8 -999 343 9.6
2005-04-05 08:11:00 51°14.012 2°55.448 349.8 -999 50 9.6
2005-04-05 08:11:05 51°14.012 2°55.448 349.9 -999 50 9.6
2005-04-05 08:11:10 51°14.012 2°55.448 349.9 -999 324 9.6
2005-04-05 08:11:15 51°14.013 2°55.448 349.9 -999 344 9.5
2005-04-05 08:11:20 51°14.013 2°55.448 349.9 -999 60 9.6
2005-04-05 08:11:26 51°14.013 2°55.448 349.9 -999 60 9.6
2005-04-05 08:11:30 51°14.012 2°55.448 349.9 -999 60 9.6
2005-04-05 08:11:34 51°14.012 2°55.448 349.9 -999 350 9.6
2005-04-05 08:11:40 51°14.012 2°55.448 349.9 -999 114 9.5
2005-04-05 08:11:44 51°14.012 2°55.448 349.9 -999 114 9.5
2005-04-05 08:11:50 51°14.012 2°55.448 349.9 -999 272 9.6
2005-04-05 08:11:55 51°14.012 2°55.448 349.9 -999 12 9.6
2005-04-05 08:12:00 51°14.012 2°55.448 349.9 -999 152 9.6
2005-04-05 08:12:04 51°14.012 2°55.448 349.9 -999 206 9.5
2005-04-05 08:12:10 51°14.012 2°55.448 349.9 -999 334 9.6
2005-04-05 08:12:15 51°14.012 2°55.448 349.9 -999 334 9.6
2005-04-05 08:12:20 51°14.012 2°55.447 349.9 -999 69 9.6
2005-04-05 08:12:25 51°14.012 2°55.447 349.9 -999 69 9.7
2005-04-05 08:12:30 51°14.012 2°55.448 349.9 -999 69 9.6
2005-04-05 08:12:35 51°14.012 2°55.447 349.9 -999 86 9.6
2005-04-05 08:12:41 51°14.012 2°55.448 349.9 -999 225 9.6
2005-04-05 08:12:45 51°14.012 2°55.447 349.9 -999 94 9.5
2005-04-05 08:12:51 51°14.012 2°55.447 349.9 -999 8 9.6
2005-04-05 08:12:55 51°14.012 2°55.447 349.9 -999 346 9.5
2005-04-05 08:13:00 51°14.012 2°55.447 349.9 -999 75 9.5
2005-04-05 08:13:05 51°14.012 2°55.447 349.9 -999 237 9.6
2005-04-05 08:13:11 51°14.012 2°55.448 349.9 -999 237 9.6
2005-04-05 08:13:15 51°14.012 2°55.448 349.9 -999 46 9.6
2005-04-05 08:13:21 51°14.012 2°55.448 349.9 -999 46 9.6
2005-04-05 08:13:26 51°14.012 2°55.448 349.9 -999 46 9.6
2005-04-05 08:13:31 51°14.012 2°55.448 350 -999 60 9.7
2005-04-05 08:13:35 51°14.012 2°55.448 350 -999 295 9.5
2005-04-05 08:13:40 51°14.012 2°55.448 350 -999 241 9.6
2005-04-05 08:13:46 51°14.012 2°55.448 350 -999 103 9.5
2005-04-05 08:13:51 51°14.012 2°55.448 350 -999 103 9.5
2005-04-05 08:13:55 51°14.012 2°55.448 350 -999 103 9.8
2005-04-05 08:14:00 51°14.012 2°55.448 350 -999 311 9.5
2005-04-05 08:14:05 51°14.012 2°55.448 350 -999 210 -999
2005-04-05 08:14:11 51°14.012 2°55.448 350 -999 104 9.5
2005-04-05 08:14:15 51°14.012 2°55.448 350 -999 289 9.5
2005-04-05 08:14:20 51°14.012 2°55.447 350 -999 80 9.6
2005-04-05 08:14:26 51°14.012 2°55.447 350 -999 192 9.5
2005-04-05 08:14:31 51°14.012 2°55.448 350 -999 280 -999
2005-04-05 08:14:35 51°14.012 2°55.447 350 -999 280 9.5
2005-04-05 08:14:40 51°14.012 2°55.447 350 -999 54 9.5
2005-04-05 08:14:45 51°14.012 2°55.447 350 -999 108 9.6
2005-04-05 08:14:51 51°14.012 2°55.447 350 -999 75 -999
2005-04-05 08:14:56 51°14.012 2°55.447 350 -999 75 9.6
2005-04-05 08:15:00 51°14.012 2°55.447 350 -999 327 9.5
2005-04-05 08:15:05 51°14.012 2°55.447 350 -999 130 9.6
2005-04-05 08:15:10 51°14.012 2°55.447 350 -999 28 9.6
2005-04-05 08:15:15 51°14.012 2°55.447 350 -999 28 -999
2005-04-05 08:15:21 51°14.012 2°55.447 350 -999 192 9.7
2005-04-05 08:15:25 51°14.012 2°55.447 350 -999 225 9.5
2005-04-05 08:15:31 51°14.012 2°55.447 350 -999 198 9.6
2005-04-05 08:15:36 51°14.012 2°55.447 350 -999 66 9.7
2005-04-05 08:15:41 51°14.012 2°55.447 350 -999 110 -999
2005-04-05 08:15:45 51°14.012 2°55.447 350 -999 12 9.6
2005-04-05 08:15:51 51°14.012 2°55.447 350 -999 132 9.7
2005-04-05 08:15:55 51°14.012 2°55.447 350 -999 287 9.6
2005-04-05 08:16:00 51°14.012 2°55.447 350 -999 102 9.5
2005-04-05 08:16:05 51°14.011 2°55.447 350 -999 229 9.6
2005-04-05 08:16:10 51°14.011 2°55.447 349.9 -999 290 9.6
2005-04-05 08:16:15 51°14.011 2°55.447 349.9 -999 295 9.5
2005-04-05 08:16:21 51°14.011 2°55.447 349.9 -999 46 9.7
2005-04-05 08:16:25 51°14.012 2°55.447 349.9 -999 46 9.8
2005-04-05 08:16:30 51°14.011 2°55.448 349.9 -999 229 9.7
2005-04-05 08:16:35 51°14.011 2°55.448 349.9 -999 84 9.7
2005-04-05 08:16:41 51°14.011 2°55.448 349.8 -999 296 9.6
2005-04-05 08:16:46 51°14.011 2°55.448 349.8 -999 116 9.6
2005-04-05 08:16:51 51°14.011 2°55.448 349.8 -999 45 9.7
2005-04-05 08:16:55 51°14.011 2°55.448 349.8 -999 6 9.6
2005-04-05 08:16:59 51°14.011 2°55.448 349.8 -999 6 9.6
2005-04-05 08:17:05 51°14.011 2°55.448 349.8 -999 45 9.7
2005-04-05 08:17:11 51°14.011 2°55.448 349.8 -999 45 9.7
2005-04-05 08:17:15 51°14.011 2°55.448 349.8 -999 45 9.9
2005-04-05 08:17:19 51°14.011 2°55.448 349.8 -999 255 10
2005-04-05 08:17:25 51°14.011 2°55.448 349.8 -999 38 -999
2005-04-05 08:17:31 51°14.011 2°55.448 349.8 -999 307 9.7
2005-04-05 08:17:35 51°14.011 2°55.448 349.8 -999 229 9.6
2005-04-05 08:17:40 51°14.011 2°55.448 349.9 -999 110 9.6
2005-04-05 08:17:45 51°14.011 2°55.448 349.8 -999 75 9.6
2005-04-05 08:17:50 51°14.011 2°55.448 349.8 -999 359 9.8
2005-04-05 08:17:56 51°14.011 2°55.448 349.8 -999 296 9.6
2005-04-05 08:18:01 51°14.011 2°55.448 349.8 -999 231 9.6
2005-04-05 08:18:06 51°14.011 2°55.448 349.8 -999 231 9.6
2005-04-05 08:18:10 51°14.01 2°55.448 349.8 -999 185 9.6
2005-04-05 08:18:15 51°14.011 2°55.448 349.8 -999 150 9.7
2005-04-05 08:18:19 51°14.01 2°55.448 349.8 -999 227 9.6
2005-04-05 08:18:25 51°14.011 2°55.448 349.8 -999 62 -999
2005-04-05 08:18:30 51°14.011 2°55.448 349.8 -999 62 9.8
2005-04-05 08:18:35 51°14.01 2°55.448 349.8 -999 62 9.6
2005-04-05 08:18:41 51°14.011 2°55.448 349.8 -999 62 9.6
2005-04-05 08:18:45 51°14.011 2°55.448 349.8 -999 352 9.7
2005-04-05 08:18:51 51°14.011 2°55.448 349.8 -999 78 9.7
2005-04-05 08:18:55 51°14.011 2°55.448 349.8 -999 65 9.6
2005-04-05 08:19:00 51°14.011 2°55.448 349.8 -999 20 9.7
2005-04-05 08:19:05 51°14.011 2°55.448 349.8 -999 20 9.6
2005-04-05 08:19:11 51°14.011 2°55.448 349.8 -999 344 9.7
2005-04-05 08:19:15 51°14.011 2°55.448 349.8 -999 18 9.7
2005-04-05 08:19:19 51°14.011 2°55.448 349.8 -999 10 9.7
2005-04-05 08:19:25 51°14.011 2°55.448 349.8 -999 250 9.7
2005-04-05 08:19:31 51°14.011 2°55.448 349.8 -999 161 9.7
2005-04-05 08:19:35 51°14.011 2°55.448 349.8 -999 341 9.6
2005-04-05 08:19:41 51°14.011 2°55.448 349.8 -999 21 9.6
2005-04-05 08:19:45 51°14.011 2°55.448 349.8 -999 38 9.7
2005-04-05 08:19:51 51°14.011 2°55.448 349.8 -999 66 9.6
2005-04-05 08:19:55 51°14.011 2°55.448 349.8 -999 279 9.7
2005-04-05 08:20:01 51°14.01 2°55.448 349.8 -999 65 9.6
2005-04-05 08:20:05 51°14.011 2°55.448 349.8 -999 208 9.7
2005-04-05 08:20:11 51°14.011 2°55.448 349.8 -999 287 9.7
2005-04-05 08:20:15 51°14.011 2°55.448 349.8 -999 29 9.6
2005-04-05 08:20:20 51°14.011 2°55.448 349.8 -999 25 9.6
2005-04-05 08:20:25 51°14.011 2°55.448 349.8 -999 25 9.7
2005-04-05 08:20:31 51°14.011 2°55.448 349.8 -999 191 9.7
2005-04-05 08:20:35 51°14.011 2°55.448 349.8 -999 279 9.6
2005-04-05 08:20:41 51°14.011 2°55.448 349.8 -999 162 9.7
2005-04-05 08:20:45 51°14.011 2°55.448 349.8 -999 231 9.7
2005-04-05 08:20:51 51°14.011 2°55.448 349.8 -999 80 9.6
2005-04-05 08:20:55 51°14.011 2°55.448 349.8 -999 80 9.7
2005-04-05 08:21:01 51°14.011 2°55.448 349.8 -999 328 9.7
2005-04-05 08:21:05 51°14.011 2°55.448 349.8 -999 199 9.7
2005-04-05 08:21:11 51°14.011 2°55.448 349.8 -999 98 9.7
2005-04-05 08:21:15 51°14.011 2°55.448 349.7 -999 263 9.7
2005-04-05 08:21:19 51°14.011 2°55.448 349.7 -999 328 9.8
2005-04-05 08:21:26 51°14.011 2°55.448 349.7 -999 275 9.7
2005-04-05 08:21:31 51°14.011 2°55.448 349.8 -999 230 9.7
2005-04-05 08:21:35 51°14.011 2°55.448 350 -999 256 9.7
2005-04-05 08:21:41 51°14.011 2°55.448 350.4 -999 256 9.8
2005-04-05 08:21:45 51°14.011 2°55.448 350.4 -999 256 9.7
2005-04-05 08:21:51 51°14.011 2°55.448 350.4 -999 303 9.8
2005-04-05 08:21:55 51°14.011 2°55.448 350.4 -999 84 9.7
2005-04-05 08:22:00 51°14.011 2°55.448 350.4 -999 132 9.6
2005-04-05 08:22:06 51°14.011 2°55.448 350.4 -999 132 9.8
2005-04-05 08:22:11 51°14.011 2°55.448 350.4 -999 358 9.7
2005-04-05 08:22:15 51°14.011 2°55.448 350.4 -999 358 9.8
2005-04-05 08:22:19 51°14.011 2°55.448 350.4 -999 358 9.7
2005-04-05 08:22:26 51°14.011 2°55.448 350.4 -999 250 9.7
2005-04-05 08:22:30 51°14.011 2°55.448 350.4 -999 316 9.7
2005-04-05 08:22:35 51°14.011 2°55.448 350.4 -999 39 9.7
2005-04-05 08:22:41 51°14.011 2°55.448 350.4 -999 307 9.6
2005-04-05 08:22:45 51°14.011 2°55.448 350.4 -999 291 9.7
2005-04-05 08:22:49 51°14.011 2°55.448 350.4 -999 244 9.8
2005-04-05 08:22:56 51°14.011 2°55.448 350.4 -999 276 9.8
2005-04-05 08:23:01 51°14.011 2°55.448 350.4 -999 312 9.8
2005-04-05 08:23:04 51°14.011 2°55.448 350.4 -999 342 9.8
2005-04-05 08:23:11 51°14.011 2°55.448 350.4 -999 4 9.8
2005-04-05 08:23:15 51°14.011 2°55.448 350.4 -999 4 9.8
2005-04-05 08:23:19 51°14.011 2°55.448 350.4 -999 332 9.7
2005-04-05 08:23:25 51°14.011 2°55.448 350.4 -999 332 9.8
2005-04-05 08:23:31 51°14.011 2°55.448 350.4 -999 98 -999
2005-04-05 08:23:35 51°14.011 2°55.448 350.4 -999 262 9.8
2005-04-05 08:23:41 51°14.011 2°55.448 350.4 -999 337 -999
2005-04-05 08:23:45 51°14.011 2°55.448 350.4 -999 23 9.7
2005-04-05 08:23:51 51°14.011 2°55.448 350.4 -999 23 9.8
2005-04-05 08:23:55 51°14.011 2°55.448 350.4 -999 198 9.8
2005-04-05 08:24:01 51°14.011 2°55.448 350.4 -999 201 9.7
2005-04-05 08:24:05 51°14.011 2°55.448 350.4 -999 34 -999
2005-04-05 08:24:11 51°14.011 2°55.448 350.4 -999 34 9.7
2005-04-05 08:24:15 51°14.011 2°55.448 350.4 -999 337 -999
2005-04-05 08:24:21 51°14.011 2°55.448 350.4 -999 276 -999
2005-04-05 08:24:25 51°14.011 2°55.448 350.4 -999 231 -999
2005-04-05 08:24:31 51°14.011 2°55.448 350.4 -999 35 9.7